Time,TemperatureF,DewpointF,PressureIn,WindDirection,WindDirectionDegrees,WindSpeedMPH,WindSpeedGustMPH,Humidity,HourlyPrecipIn,Conditions,Clouds,dailyrainin,SoftwareType,DateUTC
2013-05-15 00:01:00,74.0,56.0,30.14,NE,45,13.0,16.0,53,0.00,,,0.00,Rainwise IP-100,2013-05-15 04:01:00,
2013-05-15 00:06:00,74.0,56.0,30.14,NE,45,9.0,19.0,53,0.00,,,0.00,Rainwise IP-100,2013-05-15 04:06:00,
2013-05-15 00:11:00,74.0,55.0,30.14,NE,45,13.0,16.0,52,0.00,,,0.00,Rainwise IP-100,2013-05-15 04:11:00,
2013-05-15 00:16:00,74.0,56.5,30.14,NE,45,8.0,17.0,54,0.00,,,0.00,Rainwise IP-100,2013-05-15 04:16:00,
2013-05-15 00:21:00,74.0,56.5,30.14,NE,45,10.0,13.0,54,0.00,,,0.00,Rainwise IP-100,2013-05-15 04:21:00,
2013-05-15 00:26:00,74.0,56.0,30.13,NE,45,9.0,17.0,53,0.00,,,0.00,Rainwise IP-100,2013-05-15 04:26:00,
2013-05-15 00:31:00,74.0,56.5,30.13,NE,45,9.0,15.0,54,0.00,,,0.00,Rainwise IP-100,2013-05-15 04:31:00,
2013-05-15 00:36:00,74.0,56.0,30.13,East,90,8.0,14.0,53,0.00,,,0.00,Rainwise IP-100,2013-05-15 04:36:00,
2013-05-15 00:42:00,74.0,56.5,30.13,NE,45,9.0,14.0,54,0.00,,,0.00,Rainwise IP-100,2013-05-15 04:42:00,
2013-05-15 00:47:00,74.0,56.5,30.13,NE,45,8.0,13.0,54,0.00,,,0.00,Rainwise IP-100,2013-05-15 04:47:00,
2013-05-15 00:52:00,74.0,55.0,30.13,North,360,10.0,14.0,52,0.00,,,0.00,Rainwise IP-100,2013-05-15 04:52:00,
2013-05-15 00:55:00,74.0,56.5,30.13,NE,45,9.0,14.0,54,0.00,,,0.00,Rainwise IP-100,2013-05-15 04:55:00,
2013-05-15 01:00:00,74.0,56.5,30.13,NE,45,9.0,13.0,54,0.00,,,0.00,Rainwise IP-100,2013-05-15 05:00:00,
2013-05-15 01:05:00,74.0,56.0,30.13,NE,45,9.0,13.0,53,0.00,,,0.00,Rainwise IP-100,2013-05-15 05:05:00,
2013-05-15 01:10:00,74.0,57.0,30.13,NE,45,11.0,11.0,55,0.00,,,0.00,Rainwise IP-100,2013-05-15 05:10:00,
2013-05-15 01:15:00,74.0,54.5,30.12,NE,45,12.0,16.0,51,0.00,,,0.00,Rainwise IP-100,2013-05-15 05:15:00,
2013-05-15 01:20:00,74.0,57.0,30.12,NE,45,9.0,18.0,55,0.00,,,0.00,Rainwise IP-100,2013-05-15 05:20:00,
2013-05-15 01:26:00,74.0,57.0,30.12,NE,45,12.0,16.0,55,0.00,,,0.00,Rainwise IP-100,2013-05-15 05:26:00,
2013-05-15 01:31:00,74.0,57.0,30.12,ENE,67,10.0,13.0,55,0.00,,,0.00,Rainwise IP-100,2013-05-15 05:31:00,
2013-05-15 01:36:00,74.0,57.0,30.12,NE,45,4.0,13.0,55,0.00,,,0.00,Rainwise IP-100,2013-05-15 05:36:00,
2013-05-15 01:41:00,73.0,56.0,30.12,NE,45,11.0,16.0,55,0.00,,,0.00,Rainwise IP-100,2013-05-15 05:41:00,
2013-05-15 01:46:00,74.0,57.5,30.11,NE,45,9.0,16.0,56,0.00,,,0.00,Rainwise IP-100,2013-05-15 05:46:00,
2013-05-15 01:51:00,74.0,57.5,30.11,NE,45,8.0,15.0,56,0.00,,,0.00,Rainwise IP-100,2013-05-15 05:51:00,
2013-05-15 01:56:00,74.0,57.5,30.11,NNE,22,7.0,15.0,56,0.00,,,0.00,Rainwise IP-100,2013-05-15 05:56:00,
2013-05-15 02:02:00,74.0,57.0,30.11,NE,45,10.0,15.0,55,0.00,,,0.00,Rainwise IP-100,2013-05-15 06:02:00,
2013-05-15 02:07:00,74.0,56.5,30.11,NE,45,10.0,17.0,54,0.00,,,0.00,Rainwise IP-100,2013-05-15 06:07:00,
2013-05-15 02:12:00,74.0,57.0,30.10,ENE,67,5.0,13.0,55,0.00,,,0.00,Rainwise IP-100,2013-05-15 06:12:00,
2013-05-15 02:17:00,74.0,57.0,30.10,NE,45,12.0,15.0,55,0.00,,,0.00,Rainwise IP-100,2013-05-15 06:17:00,
2013-05-15 02:21:00,74.0,56.5,30.10,NE,45,10.0,17.0,54,0.00,,,0.00,Rainwise IP-100,2013-05-15 06:21:00,
2013-05-15 02:26:00,74.0,57.0,30.10,NE,45,10.0,16.0,55,0.00,,,0.00,Rainwise IP-100,2013-05-15 06:26:00,
2013-05-15 02:31:00,74.0,57.5,30.10,NE,45,9.0,12.0,56,0.00,,,0.00,Rainwise IP-100,2013-05-15 06:31:00,
2013-05-15 02:36:00,74.0,57.5,30.10,NE,45,13.0,17.0,56,0.00,,,0.00,Rainwise IP-100,2013-05-15 06:36:00,
2013-05-15 02:41:00,74.0,57.5,30.10,North,360,8.0,16.0,56,0.00,,,0.00,Rainwise IP-100,2013-05-15 06:41:00,
2013-05-15 02:46:00,74.0,57.5,30.10,NE,45,10.0,15.0,56,0.00,,,0.00,Rainwise IP-100,2013-05-15 06:46:00,
2013-05-15 02:52:00,74.0,57.5,30.09,NE,45,10.0,15.0,56,0.00,,,0.00,Rainwise IP-100,2013-05-15 06:52:00,
2013-05-15 02:57:00,74.0,58.0,30.10,NE,45,10.0,17.0,58,0.00,,,0.00,Rainwise IP-100,2013-05-15 06:57:00,
2013-05-15 03:02:00,74.0,57.5,30.10,NE,45,9.0,12.0,56,0.00,,,0.00,Rainwise IP-100,2013-05-15 07:02:00,
2013-05-15 03:07:00,74.0,57.5,30.10,NE,45,10.0,16.0,56,0.00,,,0.00,Rainwise IP-100,2013-05-15 07:07:00,
2013-05-15 03:12:00,74.0,58.0,30.10,NE,45,9.0,15.0,58,0.00,,,0.00,Rainwise IP-100,2013-05-15 07:12:00,
2013-05-15 03:17:00,74.0,58.0,30.10,NE,45,10.0,13.0,58,0.00,,,0.00,Rainwise IP-100,2013-05-15 07:17:00,
2013-05-15 03:22:00,74.0,58.0,30.10,NE,45,10.0,15.0,58,0.00,,,0.00,Rainwise IP-100,2013-05-15 07:22:00,
2013-05-15 03:28:00,74.0,59.5,30.10,NE,45,9.0,12.0,60,0.00,,,0.00,Rainwise IP-100,2013-05-15 07:28:00,
2013-05-15 03:33:00,74.0,60.0,30.09,NE,45,9.0,13.0,61,0.00,,,0.00,Rainwise IP-100,2013-05-15 07:33:00,
2013-05-15 03:38:00,73.0,58.0,30.10,NE,45,9.0,13.0,60,0.00,,,0.00,Rainwise IP-100,2013-05-15 07:38:00,
2013-05-15 03:43:00,74.0,59.5,30.10,NE,45,9.0,12.0,60,0.00,,,0.00,Rainwise IP-100,2013-05-15 07:43:00,
2013-05-15 03:48:00,73.0,59.0,30.09,NE,45,10.0,16.0,61,0.00,,,0.00,Rainwise IP-100,2013-05-15 07:48:00,
2013-05-15 03:53:00,74.0,59.5,30.09,NE,45,9.0,15.0,60,0.00,,,0.00,Rainwise IP-100,2013-05-15 07:53:00,
2013-05-15 03:58:00,74.0,58.0,30.09,NE,45,8.0,14.0,58,0.00,,,0.00,Rainwise IP-100,2013-05-15 07:58:00,
2013-05-15 04:03:00,74.0,61.0,30.09,NE,45,10.0,15.0,63,0.00,,,0.00,Rainwise IP-100,2013-05-15 08:03:00,
2013-05-15 04:09:00,74.0,61.0,30.09,NE,45,12.0,15.0,63,0.00,,,0.00,Rainwise IP-100,2013-05-15 08:09:00,
2013-05-15 04:14:00,74.0,61.0,30.09,ENE,67,11.0,15.0,63,0.00,,,0.00,Rainwise IP-100,2013-05-15 08:14:00,
2013-05-15 04:19:00,74.0,61.0,30.09,NE,45,12.0,14.0,63,0.00,,,0.00,Rainwise IP-100,2013-05-15 08:19:00,
2013-05-15 04:24:00,73.0,60.0,30.09,North,360,8.0,14.0,63,0.00,,,0.00,Rainwise IP-100,2013-05-15 08:24:00,
2013-05-15 04:29:00,74.0,61.0,30.09,NE,45,13.0,14.0,63,0.00,,,0.00,Rainwise IP-100,2013-05-15 08:29:00,
2013-05-15 04:34:00,74.0,60.0,30.09,East,90,6.0,13.0,61,0.00,,,0.00,Rainwise IP-100,2013-05-15 08:34:00,
2013-05-15 04:39:00,74.0,60.0,30.09,ENE,67,9.0,11.0,61,0.00,,,0.00,Rainwise IP-100,2013-05-15 08:39:00,
2013-05-15 04:45:00,74.0,60.5,30.09,East,90,6.0,14.0,62,0.00,,,0.00,Rainwise IP-100,2013-05-15 08:45:00,
2013-05-15 04:50:00,74.0,61.0,30.09,NE,45,16.0,16.0,63,0.00,,,0.00,Rainwise IP-100,2013-05-15 08:50:00,
2013-05-15 04:51:00,73.0,60.0,30.09,ENE,67,6.0,16.0,63,0.00,,,0.00,Rainwise IP-100,2013-05-15 08:51:00,
2013-05-15 04:56:00,74.0,61.0,30.09,ENE,67,6.0,13.0,63,0.00,,,0.00,Rainwise IP-100,2013-05-15 08:56:00,
2013-05-15 05:01:00,73.0,60.0,30.09,East,90,6.0,14.0,63,0.00,,,0.00,Rainwise IP-100,2013-05-15 09:01:00,
2013-05-15 05:06:00,73.0,60.0,30.09,NE,45,8.0,14.0,63,0.00,,,0.00,Rainwise IP-100,2013-05-15 09:06:00,
2013-05-15 05:11:00,73.0,60.0,30.09,ESE,112,9.0,15.0,64,0.00,,,0.00,Rainwise IP-100,2013-05-15 09:11:00,
2013-05-15 05:17:00,73.0,59.0,30.10,East,90,5.0,12.0,61,0.00,,,0.00,Rainwise IP-100,2013-05-15 09:17:00,
2013-05-15 05:22:00,73.0,59.5,30.10,NE,45,7.0,12.0,62,0.00,,,0.00,Rainwise IP-100,2013-05-15 09:22:00,
2013-05-15 05:27:00,73.0,58.0,30.10,East,90,6.0,13.0,60,0.00,,,0.00,Rainwise IP-100,2013-05-15 09:27:00,
2013-05-15 05:32:00,73.0,59.0,30.10,ENE,67,9.0,12.0,61,0.00,,,0.00,Rainwise IP-100,2013-05-15 09:32:00,
2013-05-15 05:37:00,73.0,57.5,30.10,ENE,67,6.0,13.0,59,0.00,,,0.00,Rainwise IP-100,2013-05-15 09:37:00,
2013-05-15 05:42:00,73.0,59.0,30.10,East,90,6.0,14.0,61,0.00,,,0.00,Rainwise IP-100,2013-05-15 09:42:00,
2013-05-15 05:47:00,74.0,60.0,30.10,East,90,9.0,12.0,61,0.00,,,0.00,Rainwise IP-100,2013-05-15 09:47:00,
2013-05-15 05:52:00,73.0,59.0,30.10,NE,45,6.0,14.0,61,0.00,,,0.00,Rainwise IP-100,2013-05-15 09:52:00,
2013-05-15 05:58:00,74.0,60.0,30.10,NE,45,4.0,12.0,61,0.00,,,0.00,Rainwise IP-100,2013-05-15 09:58:00,
2013-05-15 06:03:00,73.0,58.0,30.10,ENE,67,6.0,13.0,60,0.00,,,0.00,Rainwise IP-100,2013-05-15 10:03:00,
2013-05-15 06:08:00,74.0,60.0,30.10,ENE,67,3.0,13.0,61,0.00,,,0.00,Rainwise IP-100,2013-05-15 10:08:00,
2013-05-15 06:13:00,74.0,60.5,30.10,NE,45,6.0,12.0,62,0.00,,,0.00,Rainwise IP-100,2013-05-15 10:13:00,
2013-05-15 06:18:00,74.0,61.0,30.10,East,90,9.0,13.0,63,0.00,,,0.00,Rainwise IP-100,2013-05-15 10:18:00,
2013-05-15 06:23:00,74.0,61.0,30.10,NE,45,12.0,13.0,64,0.00,,,0.00,Rainwise IP-100,2013-05-15 10:23:00,
2013-05-15 06:28:00,73.0,60.0,30.10,NE,45,10.0,14.0,63,0.00,,,0.00,Rainwise IP-100,2013-05-15 10:28:00,
2013-05-15 06:33:00,73.0,59.0,30.10,NE,45,13.0,15.0,61,0.00,,,0.00,Rainwise IP-100,2013-05-15 10:33:00,
2013-05-15 06:39:00,73.0,60.0,30.10,NE,45,7.0,14.0,63,0.00,,,0.00,Rainwise IP-100,2013-05-15 10:39:00,
2013-05-15 06:44:00,74.0,60.0,30.11,East,90,8.0,15.0,61,0.00,,,0.00,Rainwise IP-100,2013-05-15 10:44:00,
2013-05-15 06:49:00,74.0,59.5,30.11,East,90,10.0,15.0,60,0.00,,,0.00,Rainwise IP-100,2013-05-15 10:49:00,
2013-05-15 06:54:00,73.0,58.0,30.11,East,90,6.0,16.0,60,0.00,,,0.00,Rainwise IP-100,2013-05-15 10:54:00,
2013-05-15 06:59:00,74.0,60.0,30.11,East,90,10.0,13.0,61,0.00,,,0.00,Rainwise IP-100,2013-05-15 10:59:00,
2013-05-15 07:04:00,74.0,59.5,30.11,NE,45,12.0,15.0,60,0.00,,,0.00,Rainwise IP-100,2013-05-15 11:04:00,
2013-05-15 07:09:00,74.0,60.0,30.11,East,90,12.0,16.0,61,0.00,,,0.00,Rainwise IP-100,2013-05-15 11:09:00,
2013-05-15 07:15:00,74.0,60.0,30.12,ENE,67,7.0,13.0,61,0.00,,,0.00,Rainwise IP-100,2013-05-15 11:15:00,
2013-05-15 07:20:00,74.0,59.0,30.12,East,90,7.0,15.0,59,0.00,,,0.00,Rainwise IP-100,2013-05-15 11:20:00,
2013-05-15 07:25:00,74.0,58.0,30.12,East,90,4.0,14.0,58,0.00,,,0.00,Rainwise IP-100,2013-05-15 11:25:00,
2013-05-15 07:30:00,74.0,59.5,30.12,NE,45,10.0,13.0,60,0.00,,,0.00,Rainwise IP-100,2013-05-15 11:30:00,
2013-05-15 07:35:00,74.0,57.5,30.12,ENE,67,10.0,17.0,56,0.00,,,0.00,Rainwise IP-100,2013-05-15 11:35:00,
2013-05-15 07:40:00,75.0,59.5,30.12,NE,45,10.0,16.0,58,0.00,,,0.00,Rainwise IP-100,2013-05-15 11:40:00,
2013-05-15 07:45:00,75.0,57.5,30.12,NE,45,9.0,17.0,55,0.00,,,0.00,Rainwise IP-100,2013-05-15 11:45:00,
2013-05-15 07:50:00,75.0,58.0,30.12,NE,45,9.0,15.0,56,0.00,,,0.00,Rainwise IP-100,2013-05-15 11:50:00,
2013-05-15 07:56:00,76.0,57.5,30.13,NE,45,10.0,16.0,53,0.00,,,0.00,Rainwise IP-100,2013-05-15 11:56:00,
2013-05-15 08:01:00,76.0,57.5,30.12,NNE,22,9.0,14.0,53,0.00,,,0.00,Rainwise IP-100,2013-05-15 12:01:00,
2013-05-15 08:06:00,77.0,57.5,30.13,NE,45,10.0,15.0,51,0.00,,,0.00,Rainwise IP-100,2013-05-15 12:06:00,
2013-05-15 08:11:00,77.0,57.5,30.13,NE,45,9.0,19.0,51,0.00,,,0.00,Rainwise IP-100,2013-05-15 12:11:00,
2013-05-15 08:16:00,77.0,57.5,30.13,ENE,67,6.0,14.0,51,0.00,,,0.00,Rainwise IP-100,2013-05-15 12:16:00,
2013-05-15 08:21:00,78.0,58.0,30.14,NE,45,7.0,17.0,50,0.00,,,0.00,Rainwise IP-100,2013-05-15 12:21:00,
2013-05-15 08:26:00,78.0,56.5,30.14,NE,45,10.0,16.0,47,0.00,,,0.00,Rainwise IP-100,2013-05-15 12:26:00,
2013-05-15 08:32:00,78.0,58.0,30.14,NE,45,12.0,16.0,50,0.00,,,0.00,Rainwise IP-100,2013-05-15 12:32:00,
2013-05-15 08:37:00,78.0,56.0,30.15,NE,45,7.0,17.0,46,0.00,,,0.00,Rainwise IP-100,2013-05-15 12:37:00,
2013-05-15 08:42:00,78.0,58.0,30.15,East,90,12.0,15.0,50,0.00,,,0.00,Rainwise IP-100,2013-05-15 12:42:00,
2013-05-15 08:47:00,78.0,57.0,30.15,NE,45,11.0,15.0,48,0.00,,,0.00,Rainwise IP-100,2013-05-15 12:47:00,
2013-05-15 08:52:00,78.0,58.0,30.15,NE,45,10.0,15.0,50,0.00,,,0.00,Rainwise IP-100,2013-05-15 12:52:00,
2013-05-15 08:57:00,78.0,57.0,30.15,ENE,67,10.0,19.0,48,0.00,,,0.00,Rainwise IP-100,2013-05-15 12:57:00,
2013-05-15 09:02:00,78.0,57.0,30.15,NE,45,12.0,16.0,48,0.00,,,0.00,Rainwise IP-100,2013-05-15 13:02:00,
2013-05-15 09:07:00,77.0,56.5,30.15,ENE,67,9.0,15.0,49,0.00,,,0.00,Rainwise IP-100,2013-05-15 13:07:00,
2013-05-15 09:13:00,77.0,57.0,30.16,NE,45,9.0,12.0,50,0.00,,,0.00,Rainwise IP-100,2013-05-15 13:13:00,
2013-05-15 09:18:00,78.0,56.5,30.16,NE,45,14.0,17.0,47,0.00,,,0.00,Rainwise IP-100,2013-05-15 13:18:00,
2013-05-15 09:23:00,78.0,56.5,30.16,NE,45,7.0,16.0,47,0.00,,,0.00,Rainwise IP-100,2013-05-15 13:23:00,
2013-05-15 09:28:00,77.0,57.0,30.17,NE,45,6.0,13.0,50,0.00,,,0.00,Rainwise IP-100,2013-05-15 13:28:00,
2013-05-15 09:33:00,78.0,58.0,30.16,NE,45,9.0,14.0,50,0.00,,,0.00,Rainwise IP-100,2013-05-15 13:33:00,
2013-05-15 09:38:00,79.0,59.0,30.16,NE,45,10.0,17.0,50,0.00,,,0.00,Rainwise IP-100,2013-05-15 13:38:00,
2013-05-15 09:43:00,79.0,59.0,30.17,NE,45,12.0,13.0,50,0.00,,,0.00,Rainwise IP-100,2013-05-15 13:43:00,
2013-05-15 09:49:00,78.0,57.5,30.17,ENE,67,10.0,14.0,49,0.00,,,0.00,Rainwise IP-100,2013-05-15 13:49:00,
2013-05-15 09:54:00,79.0,58.0,30.16,ENE,67,7.0,17.0,49,0.00,,,0.00,Rainwise IP-100,2013-05-15 13:54:00,
2013-05-15 09:59:00,78.0,58.0,30.16,NE,45,15.0,16.0,50,0.00,,,0.00,Rainwise IP-100,2013-05-15 13:59:00,
2013-05-15 10:04:00,78.0,58.0,30.17,ENE,67,9.0,15.0,51,0.00,,,0.00,Rainwise IP-100,2013-05-15 14:04:00,
2013-05-15 10:09:00,79.0,58.0,30.17,NE,45,6.0,16.0,49,0.00,,,0.00,Rainwise IP-100,2013-05-15 14:09:00,
2013-05-15 10:14:00,79.0,59.0,30.17,NE,45,15.0,15.0,50,0.00,,,0.00,Rainwise IP-100,2013-05-15 14:14:00,
2013-05-15 10:19:00,79.0,59.5,30.17,ENE,67,10.0,16.0,51,0.00,,,0.00,Rainwise IP-100,2013-05-15 14:19:00,
2013-05-15 10:24:00,78.0,59.5,30.17,NE,45,5.0,15.0,53,0.00,,,0.00,Rainwise IP-100,2013-05-15 14:24:00,
2013-05-15 10:30:00,78.0,58.0,30.17,NE,45,15.0,15.0,50,0.00,,,0.00,Rainwise IP-100,2013-05-15 14:30:00,
2013-05-15 10:35:00,78.0,59.5,30.17,NE,45,10.0,16.0,53,0.00,,,0.00,Rainwise IP-100,2013-05-15 14:35:00,
2013-05-15 10:40:00,78.0,58.0,30.17,NE,45,11.0,13.0,50,0.00,,,0.00,Rainwise IP-100,2013-05-15 14:40:00,
2013-05-15 10:45:00,78.0,59.0,30.17,North,360,12.0,15.0,52,0.00,,,0.00,Rainwise IP-100,2013-05-15 14:45:00,
2013-05-15 10:50:00,78.0,58.0,30.17,NE,45,12.0,15.0,51,0.00,,,0.00,Rainwise IP-100,2013-05-15 14:50:00,
2013-05-15 10:55:00,78.0,57.0,30.17,NE,45,12.0,15.0,48,0.00,,,0.00,Rainwise IP-100,2013-05-15 14:55:00,
2013-05-15 11:00:00,78.0,58.0,30.17,NE,45,13.0,18.0,50,0.00,,,0.00,Rainwise IP-100,2013-05-15 15:00:00,
2013-05-15 11:06:00,78.0,57.0,30.17,NE,45,11.0,17.0,48,0.00,,,0.00,Rainwise IP-100,2013-05-15 15:06:00,
2013-05-15 11:11:00,78.0,57.0,30.17,NE,45,11.0,16.0,48,0.00,,,0.00,Rainwise IP-100,2013-05-15 15:11:00,
2013-05-15 11:16:00,78.0,58.0,30.17,NE,45,13.0,16.0,51,0.00,,,0.00,Rainwise IP-100,2013-05-15 15:16:00,
2013-05-15 11:21:00,78.0,58.0,30.17,NE,45,9.0,16.0,50,0.00,,,0.00,Rainwise IP-100,2013-05-15 15:21:00,
2013-05-15 11:26:00,79.0,59.0,30.18,NE,45,10.0,16.0,50,0.00,,,0.00,Rainwise IP-100,2013-05-15 15:26:00,
2013-05-15 11:31:00,79.0,57.0,30.18,NE,45,13.0,16.0,47,0.00,,,0.00,Rainwise IP-100,2013-05-15 15:31:00,
2013-05-15 11:36:00,80.0,57.5,30.18,NE,45,11.0,17.0,47,0.00,,,0.00,Rainwise IP-100,2013-05-15 15:36:00,
2013-05-15 11:41:00,79.0,57.5,30.18,NE,45,9.0,16.0,48,0.00,,,0.00,Rainwise IP-100,2013-05-15 15:41:00,
2013-05-15 11:47:00,79.0,57.5,30.18,NE,45,10.0,16.0,48,0.00,,,0.00,Rainwise IP-100,2013-05-15 15:47:00,
2013-05-15 11:52:00,80.0,57.5,30.18,NE,45,10.0,16.0,47,0.00,,,0.00,Rainwise IP-100,2013-05-15 15:52:00,
2013-05-15 11:57:00,79.0,57.5,30.17,NE,45,10.0,19.0,48,0.00,,,0.00,Rainwise IP-100,2013-05-15 15:57:00,
2013-05-15 12:02:00,79.0,56.5,30.17,NE,45,15.0,18.0,46,0.00,,,0.00,Rainwise IP-100,2013-05-15 16:02:00,
2013-05-15 12:07:00,79.0,56.0,30.17,NNE,22,13.0,20.0,45,0.00,,,0.00,Rainwise IP-100,2013-05-15 16:07:00,
2013-05-15 12:12:00,79.0,55.0,30.17,NE,45,14.0,18.0,44,0.00,,,0.00,Rainwise IP-100,2013-05-15 16:12:00,
2013-05-15 12:17:00,79.0,56.0,30.17,NE,45,13.0,17.0,45,0.00,,,0.00,Rainwise IP-100,2013-05-15 16:17:00,
2013-05-15 12:23:00,79.0,54.5,30.17,NE,45,12.0,18.0,43,0.00,,,0.00,Rainwise IP-100,2013-05-15 16:23:00,
2013-05-15 12:28:00,79.0,55.0,30.17,NE,45,9.0,17.0,44,0.00,,,0.00,Rainwise IP-100,2013-05-15 16:28:00,
2013-05-15 12:33:00,79.0,54.0,30.17,NNE,22,11.0,16.0,42,0.00,,,0.00,Rainwise IP-100,2013-05-15 16:33:00,
2013-05-15 12:38:00,79.0,54.5,30.17,NE,45,10.0,15.0,43,0.00,,,0.00,Rainwise IP-100,2013-05-15 16:38:00,
2013-05-15 12:43:00,79.0,56.0,30.17,NE,45,16.0,16.0,45,0.00,,,0.00,Rainwise IP-100,2013-05-15 16:43:00,
2013-05-15 12:48:00,79.0,54.5,30.18,NE,45,13.0,17.0,43,0.00,,,0.00,Rainwise IP-100,2013-05-15 16:48:00,
2013-05-15 12:53:00,79.0,54.5,30.18,NE,45,9.0,16.0,43,0.00,,,0.00,Rainwise IP-100,2013-05-15 16:53:00,
2013-05-15 12:58:00,79.0,56.5,30.17,NE,45,8.0,16.0,46,0.00,,,0.00,Rainwise IP-100,2013-05-15 16:58:00,
2013-05-15 13:04:00,79.0,56.0,30.17,ENE,67,7.0,13.0,45,0.00,,,0.00,Rainwise IP-100,2013-05-15 17:04:00,
2013-05-15 13:09:00,79.0,56.0,30.17,NE,45,10.0,14.0,45,0.00,,,0.00,Rainwise IP-100,2013-05-15 17:09:00,
2013-05-15 13:14:00,79.0,56.0,30.17,NE,45,13.0,16.0,45,0.00,,,0.00,Rainwise IP-100,2013-05-15 17:14:00,
2013-05-15 13:19:00,79.0,57.0,30.16,NE,45,8.0,16.0,47,0.00,,,0.00,Rainwise IP-100,2013-05-15 17:19:00,
2013-05-15 13:24:00,79.0,57.5,30.17,NE,45,9.0,13.0,48,0.00,,,0.00,Rainwise IP-100,2013-05-15 17:24:00,
2013-05-15 13:29:00,79.0,58.0,30.16,NE,45,9.0,16.0,49,0.00,,,0.00,Rainwise IP-100,2013-05-15 17:29:00,
2013-05-15 13:34:00,79.0,57.5,30.16,NE,45,10.0,16.0,48,0.00,,,0.00,Rainwise IP-100,2013-05-15 17:34:00,
2013-05-15 13:40:00,79.0,57.5,30.16,NE,45,12.0,14.0,48,0.00,,,0.00,Rainwise IP-100,2013-05-15 17:40:00,
2013-05-15 13:45:00,79.0,57.0,30.16,NE,45,7.0,16.0,47,0.00,,,0.00,Rainwise IP-100,2013-05-15 17:45:00,
2013-05-15 13:50:00,79.0,56.0,30.16,NE,45,10.0,16.0,45,0.00,,,0.00,Rainwise IP-100,2013-05-15 17:50:00,
2013-05-15 13:55:00,79.0,57.0,30.16,NE,45,9.0,12.0,47,0.00,,,0.00,Rainwise IP-100,2013-05-15 17:55:00,
2013-05-15 14:00:00,79.0,56.5,30.16,SE,135,7.0,14.0,46,0.00,,,0.00,Rainwise IP-100,2013-05-15 18:00:00,
2013-05-15 14:05:00,79.0,57.5,30.16,NE,45,9.0,13.0,48,0.00,,,0.00,Rainwise IP-100,2013-05-15 18:05:00,
2013-05-15 14:10:00,79.0,57.5,30.15,NE,45,11.0,16.0,48,0.00,,,0.00,Rainwise IP-100,2013-05-15 18:10:00,
2013-05-15 14:15:00,79.0,59.5,30.15,NE,45,12.0,16.0,51,0.00,,,0.00,Rainwise IP-100,2013-05-15 18:15:00,
2013-05-15 14:21:00,79.0,59.0,30.15,NE,45,9.0,16.0,50,0.00,,,0.00,Rainwise IP-100,2013-05-15 18:21:00,
2013-05-15 14:26:00,79.0,59.5,30.15,East,90,7.0,14.0,51,0.00,,,0.00,Rainwise IP-100,2013-05-15 18:26:00,
2013-05-15 14:31:00,79.0,59.5,30.15,NE,45,9.0,15.0,51,0.00,,,0.00,Rainwise IP-100,2013-05-15 18:31:00,
2013-05-15 14:36:00,79.0,60.0,30.15,East,90,10.0,12.0,52,0.00,,,0.00,Rainwise IP-100,2013-05-15 18:36:00,
2013-05-15 14:41:00,79.0,60.5,30.15,NE,45,10.0,16.0,53,0.00,,,0.00,Rainwise IP-100,2013-05-15 18:41:00,
2013-05-15 14:46:00,80.0,61.0,30.15,East,90,6.0,15.0,52,0.00,,,0.00,Rainwise IP-100,2013-05-15 18:46:00,
2013-05-15 14:51:00,80.0,61.0,30.15,NE,45,10.0,17.0,52,0.00,,,0.00,Rainwise IP-100,2013-05-15 18:51:00,
2013-05-15 14:57:00,80.0,61.5,30.14,NNE,22,7.0,16.0,53,0.00,,,0.00,Rainwise IP-100,2013-05-15 18:57:00,
2013-05-15 15:02:00,80.0,62.5,30.14,NE,45,12.0,17.0,55,0.00,,,0.00,Rainwise IP-100,2013-05-15 19:02:00,
2013-05-15 15:07:00,80.0,62.0,30.14,NE,45,10.0,14.0,54,0.00,,,0.00,Rainwise IP-100,2013-05-15 19:07:00,
2013-05-15 15:12:00,79.0,61.0,30.14,East,90,9.0,16.0,54,0.00,,,0.00,Rainwise IP-100,2013-05-15 19:12:00,
2013-05-15 15:17:00,79.0,60.0,30.12,East,90,9.0,17.0,52,0.00,,,0.00,Rainwise IP-100,2013-05-15 19:17:00,
2013-05-15 15:22:00,79.0,60.5,30.13,NE,45,12.0,16.0,53,0.00,,,0.00,Rainwise IP-100,2013-05-15 19:22:00,
2013-05-15 15:27:00,79.0,59.5,30.13,ENE,67,10.0,15.0,51,0.00,,,0.00,Rainwise IP-100,2013-05-15 19:27:00,
2013-05-15 15:32:00,79.0,59.0,30.13,NE,45,10.0,16.0,50,0.00,,,0.00,Rainwise IP-100,2013-05-15 19:32:00,
2013-05-15 15:38:00,79.0,59.5,30.13,NE,45,10.0,16.0,51,0.00,,,0.00,Rainwise IP-100,2013-05-15 19:38:00,
2013-05-15 15:43:00,79.0,59.5,30.13,NE,45,12.0,16.0,51,0.00,,,0.00,Rainwise IP-100,2013-05-15 19:43:00,
2013-05-15 15:48:00,79.0,59.5,30.12,NE,45,12.0,17.0,51,0.00,,,0.00,Rainwise IP-100,2013-05-15 19:48:00,
2013-05-15 15:53:00,79.0,60.5,30.12,NE,45,9.0,17.0,53,0.00,,,0.00,Rainwise IP-100,2013-05-15 19:53:00,
2013-05-15 15:58:00,79.0,61.0,30.12,North,360,7.0,17.0,54,0.00,,,0.00,Rainwise IP-100,2013-05-15 19:58:00,
2013-05-15 16:03:00,79.0,60.0,30.11,NE,45,10.0,17.0,52,0.00,,,0.00,Rainwise IP-100,2013-05-15 20:03:00,
2013-05-15 16:08:00,79.0,59.5,30.11,NE,45,12.0,17.0,51,0.00,,,0.00,Rainwise IP-100,2013-05-15 20:08:00,
2013-05-15 16:14:00,79.0,60.5,30.10,NE,45,11.0,16.0,53,0.00,,,0.00,Rainwise IP-100,2013-05-15 20:14:00,
2013-05-15 16:19:00,79.0,60.5,30.10,NE,45,12.0,21.0,53,0.00,,,0.00,Rainwise IP-100,2013-05-15 20:19:00,
2013-05-15 16:24:00,79.0,60.5,30.10,East,90,10.0,19.0,53,0.00,,,0.00,Rainwise IP-100,2013-05-15 20:24:00,
2013-05-15 16:29:00,79.0,60.5,30.10,NE,45,11.0,18.0,53,0.00,,,0.00,Rainwise IP-100,2013-05-15 20:29:00,
2013-05-15 16:34:00,79.0,61.5,30.10,NE,45,11.0,16.0,55,0.00,,,0.00,Rainwise IP-100,2013-05-15 20:34:00,
2013-05-15 16:39:00,79.0,61.0,30.10,ENE,67,11.0,19.0,54,0.00,,,0.00,Rainwise IP-100,2013-05-15 20:39:00,
2013-05-15 16:44:00,79.0,61.5,30.10,East,90,9.0,18.0,55,0.00,,,0.00,Rainwise IP-100,2013-05-15 20:44:00,
2013-05-15 16:49:00,79.0,61.0,30.09,East,90,7.0,17.0,54,0.00,,,0.00,Rainwise IP-100,2013-05-15 20:49:00,
2013-05-15 16:54:00,79.0,61.0,30.10,NE,45,14.0,16.0,54,0.00,,,0.00,Rainwise IP-100,2013-05-15 20:54:00,
2013-05-15 17:00:00,80.0,61.0,30.09,ENE,67,11.0,16.0,52,0.00,,,0.00,Rainwise IP-100,2013-05-15 21:00:00,
2013-05-15 17:05:00,79.0,60.5,30.10,NE,45,9.0,19.0,53,0.00,,,0.00,Rainwise IP-100,2013-05-15 21:05:00,
2013-05-15 17:10:00,79.0,61.5,30.10,NE,45,12.0,15.0,55,0.00,,,0.00,Rainwise IP-100,2013-05-15 21:10:00,
2013-05-15 17:15:00,80.0,62.5,30.10,NE,45,12.0,17.0,55,0.00,,,0.00,Rainwise IP-100,2013-05-15 21:15:00,
2013-05-15 17:20:00,79.0,62.0,30.10,East,90,10.0,15.0,56,0.00,,,0.00,Rainwise IP-100,2013-05-15 21:20:00,
2013-05-15 17:25:00,79.0,62.5,30.09,ENE,67,8.0,17.0,57,0.00,,,0.00,Rainwise IP-100,2013-05-15 21:25:00,
2013-05-15 17:30:00,78.0,62.0,30.10,ENE,67,8.0,16.0,58,0.00,,,0.00,Rainwise IP-100,2013-05-15 21:30:00,
2013-05-15 17:36:00,78.0,63.5,30.09,East,90,16.0,16.0,61,0.00,,,0.00,Rainwise IP-100,2013-05-15 21:36:00,
2013-05-15 17:41:00,77.0,62.0,30.09,ENE,67,8.0,16.0,60,0.00,,,0.00,Rainwise IP-100,2013-05-15 21:41:00,
2013-05-15 17:46:00,77.0,61.5,30.09,East,90,7.0,15.0,58,0.00,,,0.00,Rainwise IP-100,2013-05-15 21:46:00,
2013-05-15 17:51:00,78.0,60.5,30.09,NE,45,8.0,17.0,55,0.00,,,0.00,Rainwise IP-100,2013-05-15 21:51:00,
2013-05-15 17:56:00,78.0,61.5,30.09,NE,45,14.0,14.0,57,0.00,,,0.00,Rainwise IP-100,2013-05-15 21:56:00,
2013-05-15 18:01:00,78.0,61.5,30.09,East,90,12.0,17.0,57,0.00,,,0.00,Rainwise IP-100,2013-05-15 22:01:00,
2013-05-15 18:06:00,78.0,62.0,30.09,East,90,9.0,19.0,58,0.00,,,0.00,Rainwise IP-100,2013-05-15 22:06:00,
2013-05-15 18:11:00,77.0,61.5,30.08,NE,45,9.0,17.0,58,0.00,,,0.00,Rainwise IP-100,2013-05-15 22:11:00,
2013-05-15 18:17:00,77.0,61.5,30.08,ESE,112,6.0,16.0,59,0.00,,,0.00,Rainwise IP-100,2013-05-15 22:17:00,
2013-05-15 18:22:00,77.0,61.5,30.08,NE,45,15.0,15.0,58,0.00,,,0.00,Rainwise IP-100,2013-05-15 22:22:00,
2013-05-15 18:27:00,77.0,61.5,30.08,East,90,10.0,19.0,58,0.00,,,0.00,Rainwise IP-100,2013-05-15 22:27:00,
2013-05-15 18:32:00,77.0,61.0,30.08,NE,45,12.0,14.0,57,0.00,,,0.00,Rainwise IP-100,2013-05-15 22:32:00,
2013-05-15 18:37:00,77.0,61.0,30.08,East,90,6.0,15.0,57,0.00,,,0.00,Rainwise IP-100,2013-05-15 22:37:00,
2013-05-15 18:42:00,78.0,61.0,30.08,East,90,13.0,14.0,56,0.00,,,0.00,Rainwise IP-100,2013-05-15 22:42:00,
2013-05-15 18:47:00,78.0,60.5,30.08,NE,45,8.0,16.0,55,0.00,,,0.00,Rainwise IP-100,2013-05-15 22:47:00,
2013-05-15 18:52:00,77.0,60.5,30.08,NE,45,9.0,13.0,56,0.00,,,0.00,Rainwise IP-100,2013-05-15 22:52:00,
2013-05-15 18:57:00,77.0,61.0,30.08,ESE,112,2.0,16.0,57,0.00,,,0.00,Rainwise IP-100,2013-05-15 22:57:00,
2013-05-15 19:03:00,77.0,60.5,30.08,NE,45,10.0,15.0,56,0.00,,,0.00,Rainwise IP-100,2013-05-15 23:03:00,
2013-05-15 19:08:00,77.0,61.5,30.09,East,90,6.0,16.0,58,0.00,,,0.00,Rainwise IP-100,2013-05-15 23:08:00,
2013-05-15 19:13:00,77.0,61.0,30.08,East,90,7.0,17.0,57,0.00,,,0.00,Rainwise IP-100,2013-05-15 23:13:00,
2013-05-15 19:18:00,77.0,61.5,30.08,NE,45,12.0,15.0,59,0.00,,,0.00,Rainwise IP-100,2013-05-15 23:18:00,
2013-05-15 19:23:00,76.0,60.0,30.09,ENE,67,7.0,16.0,58,0.00,,,0.00,Rainwise IP-100,2013-05-15 23:23:00,
2013-05-15 19:28:00,76.0,61.0,30.08,ENE,67,6.0,15.0,60,0.00,,,0.00,Rainwise IP-100,2013-05-15 23:28:00,
2013-05-15 19:33:00,76.0,60.5,30.08,ENE,67,9.0,17.0,59,0.00,,,0.00,Rainwise IP-100,2013-05-15 23:33:00,
2013-05-15 19:39:00,76.0,60.5,30.08,ESE,112,6.0,15.0,59,0.00,,,0.00,Rainwise IP-100,2013-05-15 23:39:00,
2013-05-15 19:44:00,75.0,59.0,30.07,ENE,67,9.0,17.0,57,0.00,,,0.00,Rainwise IP-100,2013-05-15 23:44:00,
2013-05-15 19:49:00,75.0,60.5,30.08,NE,45,9.0,12.0,60,0.00,,,0.00,Rainwise IP-100,2013-05-15 23:49:00,
2013-05-15 19:54:00,75.0,60.5,30.08,East,90,11.0,16.0,60,0.00,,,0.00,Rainwise IP-100,2013-05-15 23:54:00,
2013-05-15 19:59:00,75.0,60.0,30.08,SE,135,9.0,16.0,59,0.00,,,0.00,Rainwise IP-100,2013-05-15 23:59:00,
2013-05-15 20:04:00,75.0,59.5,30.07,ENE,67,5.0,16.0,58,0.00,,,0.00,Rainwise IP-100,2013-05-16 00:04:00,
2013-05-15 20:09:00,75.0,61.5,30.08,East,90,7.0,17.0,62,0.00,,,0.00,Rainwise IP-100,2013-05-16 00:09:00,
2013-05-15 20:14:00,75.0,61.0,30.07,ENE,67,11.0,17.0,61,0.00,,,0.00,Rainwise IP-100,2013-05-16 00:14:00,
2013-05-15 20:20:00,75.0,60.5,30.08,NE,45,6.0,16.0,60,0.00,,,0.00,Rainwise IP-100,2013-05-16 00:20:00,
2013-05-15 20:25:00,75.0,59.5,30.07,East,90,9.0,15.0,58,0.00,,,0.00,Rainwise IP-100,2013-05-16 00:25:00,
2013-05-15 20:30:00,75.0,60.5,30.08,East,90,4.0,15.0,60,0.00,,,0.00,Rainwise IP-100,2013-05-16 00:30:00,
2013-05-15 20:35:00,75.0,61.5,30.08,NE,45,3.0,17.0,62,0.00,,,0.00,Rainwise IP-100,2013-05-16 00:35:00,
2013-05-15 20:40:00,75.0,60.0,30.07,East,90,15.0,20.0,59,0.00,,,0.00,Rainwise IP-100,2013-05-16 00:40:00,
2013-05-15 20:45:00,75.0,59.0,30.08,NE,45,7.0,16.0,57,0.00,,,0.00,Rainwise IP-100,2013-05-16 00:45:00,
2013-05-15 20:50:00,75.0,59.5,30.08,East,90,8.0,15.0,58,0.00,,,0.00,Rainwise IP-100,2013-05-16 00:50:00,
2013-05-15 20:56:00,75.0,60.5,30.08,ESE,112,10.0,14.0,60,0.00,,,0.00,Rainwise IP-100,2013-05-16 00:56:00,
2013-05-15 21:01:00,75.0,60.5,30.08,ESE,112,6.0,14.0,60,0.00,,,0.00,Rainwise IP-100,2013-05-16 01:01:00,
2013-05-15 21:06:00,74.0,59.5,30.08,East,90,9.0,13.0,60,0.00,,,0.00,Rainwise IP-100,2013-05-16 01:06:00,
2013-05-15 21:11:00,74.0,59.5,30.08,East,90,10.0,17.0,60,0.00,,,0.00,Rainwise IP-100,2013-05-16 01:11:00,
2013-05-15 21:16:00,74.0,58.0,30.08,NE,45,10.0,19.0,58,0.00,,,0.00,Rainwise IP-100,2013-05-16 01:16:00,
2013-05-15 21:21:00,74.0,59.0,30.08,East,90,9.0,17.0,59,0.00,,,0.00,Rainwise IP-100,2013-05-16 01:21:00,
2013-05-15 21:26:00,74.0,59.5,30.08,East,90,6.0,16.0,60,0.00,,,0.00,Rainwise IP-100,2013-05-16 01:26:00,
2013-05-15 21:31:00,74.0,57.5,30.08,East,90,7.0,16.0,57,0.00,,,0.00,Rainwise IP-100,2013-05-16 01:31:00,
2013-05-15 21:37:00,74.0,59.5,30.08,East,90,6.0,13.0,60,0.00,,,0.00,Rainwise IP-100,2013-05-16 01:37:00,
2013-05-15 21:42:00,74.0,59.0,30.08,East,90,10.0,16.0,59,0.00,,,0.00,Rainwise IP-100,2013-05-16 01:42:00,
2013-05-15 21:47:00,74.0,57.5,30.08,SE,135,3.0,13.0,57,0.00,,,0.00,Rainwise IP-100,2013-05-16 01:47:00,
2013-05-15 21:52:00,74.0,58.0,30.09,East,90,3.0,16.0,58,0.00,,,0.00,Rainwise IP-100,2013-05-16 01:52:00,
2013-05-15 21:57:00,74.0,58.0,30.08,East,90,8.0,16.0,58,0.00,,,0.00,Rainwise IP-100,2013-05-16 01:57:00,
2013-05-15 22:02:00,74.0,59.0,30.09,ENE,67,9.0,15.0,59,0.00,,,0.00,Rainwise IP-100,2013-05-16 02:02:00,
2013-05-15 22:07:00,74.0,59.5,30.09,East,90,9.0,16.0,60,0.00,,,0.00,Rainwise IP-100,2013-05-16 02:07:00,
2013-05-15 22:13:00,74.0,58.0,30.09,East,90,5.0,13.0,58,0.00,,,0.00,Rainwise IP-100,2013-05-16 02:13:00,
2013-05-15 22:18:00,74.0,58.0,30.09,ENE,67,9.0,13.0,58,0.00,,,0.00,Rainwise IP-100,2013-05-16 02:18:00,
2013-05-15 22:23:00,74.0,58.0,30.09,East,90,12.0,16.0,58,0.00,,,0.00,Rainwise IP-100,2013-05-16 02:23:00,
2013-05-15 22:28:00,74.0,58.0,30.09,ENE,67,9.0,16.0,58,0.00,,,0.00,Rainwise IP-100,2013-05-16 02:28:00,
2013-05-15 22:33:00,74.0,57.5,30.09,East,90,7.0,16.0,56,0.00,,,0.00,Rainwise IP-100,2013-05-16 02:33:00,
2013-05-15 22:38:00,74.0,58.0,30.10,SE,135,3.0,19.0,58,0.00,,,0.00,Rainwise IP-100,2013-05-16 02:38:00,
2013-05-15 22:43:00,74.0,57.5,30.09,East,90,9.0,20.0,57,0.00,,,0.00,Rainwise IP-100,2013-05-16 02:43:00,
2013-05-15 22:48:00,74.0,58.0,30.10,NE,45,12.0,15.0,58,0.00,,,0.00,Rainwise IP-100,2013-05-16 02:48:00,
2013-05-15 22:54:00,74.0,57.5,30.10,East,90,7.0,14.0,56,0.00,,,0.00,Rainwise IP-100,2013-05-16 02:54:00,
2013-05-15 22:59:00,74.0,59.0,30.10,NE,45,9.0,15.0,59,0.00,,,0.00,Rainwise IP-100,2013-05-16 02:59:00,
2013-05-15 23:04:00,74.0,57.0,30.09,NNE,22,6.0,15.0,55,0.00,,,0.00,Rainwise IP-100,2013-05-16 03:04:00,
2013-05-15 23:09:00,74.0,58.0,30.09,ENE,67,8.0,13.0,58,0.00,,,0.00,Rainwise IP-100,2013-05-16 03:09:00,
2013-05-15 23:14:00,74.0,58.0,30.09,East,90,8.0,18.0,58,0.00,,,0.00,Rainwise IP-100,2013-05-16 03:14:00,
2013-05-15 23:19:00,74.0,58.0,30.09,ESE,112,8.0,19.0,58,0.00,,,0.00,Rainwise IP-100,2013-05-16 03:19:00,
2013-05-15 23:24:00,74.0,58.0,30.09,NNE,22,7.0,13.0,58,0.00,,,0.00,Rainwise IP-100,2013-05-16 03:24:00,
2013-05-15 23:30:00,74.0,58.0,30.09,East,90,7.0,15.0,58,0.00,,,0.00,Rainwise IP-100,2013-05-16 03:30:00,
2013-05-15 23:35:00,74.0,57.5,30.09,ENE,67,7.0,15.0,56,0.00,,,0.00,Rainwise IP-100,2013-05-16 03:35:00,
2013-05-15 23:40:00,74.0,57.5,30.09,NE,45,7.0,13.0,56,0.00,,,0.00,Rainwise IP-100,2013-05-16 03:40:00,
2013-05-15 23:45:00,74.0,58.0,30.08,SE,135,7.0,12.0,58,0.00,,,0.00,Rainwise IP-100,2013-05-16 03:45:00,
2013-05-15 23:50:00,74.0,56.5,30.08,East,90,10.0,15.0,54,0.00,,,0.00,Rainwise IP-100,2013-05-16 03:50:00,
2013-05-15 23:55:00,74.0,58.0,30.08,ESE,112,9.0,15.0,58,0.00,,,0.00,Rainwise IP-100,2013-05-16 03:55:00,